ITY1709 LIRF-LICC
Flight info
| Callsign | ITY1709 |
|---|---|
| Flight time | 0h 53m |
| Altitude | 39000 |
| Route | ROTUN DCT DORAS DCT BEKIV DCT ENEPA DCT LIBRO |
| Aircraft | A20N/M-SDE2E3FGHIJ1RWXY/LB1 |
Departure
| Time | 2026-02-17 07:11 |
|---|---|
| Airport | Rome–Fiumicino Leonardo da Vinci International Airport (LIRF) |
Arrival
| Time | 2026-02-17 08:05 |
|---|---|
| Airport | Catania-Fontanarossa Airport (LICC) |
| Time | Latitude | Longitude | Altitude | Speed | Heading |
|---|---|---|---|---|---|
| 2026-02-17 06:35 | 41.79603 | 12.26193 | 15 ft | 0 kts | 115° |
| 2026-02-17 06:55 | 41.79605 | 12.26186 | 15 ft | 2 kts | 114° |
| 2026-02-17 06:55 | 41.79612 | 12.26161 | 18 ft | 3 kts | 102° |
| 2026-02-17 06:56 | 41.79615 | 12.26135 | 18 ft | 3 kts | 81° |
| 2026-02-17 06:56 | 41.79609 | 12.26112 | 19 ft | 3 kts | 38° |
| 2026-02-17 06:56 | 41.79604 | 12.26107 | 17 ft | 1 kts | 25° |
| 2026-02-17 07:00 | 41.79606 | 12.26108 | 19 ft | 2 kts | 25° |
| 2026-02-17 07:00 | 41.79629 | 12.26122 | 7 ft | 5 kts | 25° |
| 2026-02-17 07:01 | 41.79674 | 12.26150 | 15 ft | 9 kts | 25° |
| 2026-02-17 07:01 | 41.79725 | 12.26159 | 15 ft | 8 kts | 330° |
| 2026-02-17 07:01 | 41.79760 | 12.26085 | 16 ft | 11 kts | 297° |
| 2026-02-17 07:01 | 41.79795 | 12.25990 | 15 ft | 12 kts | 293° |
| 2026-02-17 07:02 | 41.79822 | 12.25909 | 15 ft | 8 kts | 295° |
| 2026-02-17 07:02 | 41.79843 | 12.25848 | 15 ft | 8 kts | 295° |
| 2026-02-17 07:02 | 41.79891 | 12.25831 | 15 ft | 9 kts | 33° |
| 2026-02-17 07:03 | 41.80040 | 12.25926 | 16 ft | 13 kts | 24° |
| 2026-02-17 07:03 | 41.80134 | 12.25982 | 16 ft | 16 kts | 24° |
| 2026-02-17 07:03 | 41.80231 | 12.26041 | 17 ft | 16 kts | 25° |
| 2026-02-17 07:03 | 41.80333 | 12.26105 | 15 ft | 16 kts | 25° |
| 2026-02-17 07:04 | 41.80441 | 12.26166 | 15 ft | 15 kts | 15° |
| 2026-02-17 07:04 | 41.80528 | 12.26245 | 15 ft | 16 kts | 62° |
| 2026-02-17 07:04 | 41.80567 | 12.26377 | 15 ft | 15 kts | 69° |
| 2026-02-17 07:04 | 41.80608 | 12.26522 | 16 ft | 18 kts | 69° |
| 2026-02-17 07:05 | 41.80655 | 12.26689 | 16 ft | 20 kts | 69° |
| 2026-02-17 07:05 | 41.80700 | 12.26851 | 15 ft | 17 kts | 70° |
| 2026-02-17 07:05 | 41.80738 | 12.26992 | 15 ft | 13 kts | 69° |
| 2026-02-17 07:05 | 41.80819 | 12.27037 | 15 ft | 15 kts | 342° |
| 2026-02-17 07:06 | 41.80871 | 12.27011 | 15 ft | 0 kts | 340° |
| 2026-02-17 07:07 | 41.80885 | 12.27004 | 15 ft | 4 kts | 340° |
| 2026-02-17 07:07 | 41.80922 | 12.26986 | 14 ft | 7 kts | 340° |
| 2026-02-17 07:07 | 41.80956 | 12.26935 | 13 ft | 9 kts | 277° |
| 2026-02-17 07:08 | 41.80949 | 12.26893 | 15 ft | 0 kts | 251° |
| 2026-02-17 07:11 | 41.80880 | 12.26640 | 14 ft | 62 kts | 250° |
| 2026-02-17 07:11 | 41.80651 | 12.25821 | 17 ft | 123 kts | 249° |
| 2026-02-17 07:11 | 41.80289 | 12.24548 | 69 ft | 163 kts | 251° |
| 2026-02-17 07:11 | 41.79895 | 12.23159 | 684 ft | 163 kts | 253° |
| 2026-02-17 07:12 | 41.79506 | 12.21705 | 1303 ft | 169 kts | 259° |
| 2026-02-17 07:12 | 41.79255 | 12.20146 | 1915 ft | 170 kts | 271° |
| 2026-02-17 07:12 | 41.79205 | 12.18525 | 2365 ft | 185 kts | 277° |
| 2026-02-17 07:12 | 41.79193 | 12.16689 | 2795 ft | 205 kts | 275° |
| 2026-02-17 07:13 | 41.78800 | 12.14808 | 3735 ft | 222 kts | 247° |
| 2026-02-17 07:13 | 41.77720 | 12.13150 | 4441 ft | 249 kts | 230° |
| 2026-02-17 07:13 | 41.76419 | 12.11561 | 5358 ft | 255 kts | 227° |
| 2026-02-17 07:13 | 41.75080 | 12.09979 | 6378 ft | 258 kts | 227° |
| 2026-02-17 07:14 | 41.73738 | 12.08373 | 7392 ft | 260 kts | 228° |
| 2026-02-17 07:14 | 41.72399 | 12.06745 | 8450 ft | 259 kts | 229° |
| 2026-02-17 07:14 | 41.71014 | 12.05166 | 9440 ft | 268 kts | 217° |
| 2026-02-17 07:15 | 41.67243 | 12.04190 | 10998 ft | 299 kts | 183° |
| 2026-02-17 07:15 | 41.65097 | 12.03979 | 11397 ft | 318 kts | 197° |
| 2026-02-17 07:15 | 41.62886 | 12.03192 | 11785 ft | 340 kts | 200° |
| 2026-02-17 07:15 | 41.60523 | 12.02316 | 12141 ft | 364 kts | 195° |
| 2026-02-17 07:16 | 41.57960 | 12.01867 | 12869 ft | 376 kts | 185° |
| 2026-02-17 07:16 | 41.55317 | 12.01839 | 13735 ft | 381 kts | 183° |
| 2026-02-17 07:16 | 41.52643 | 12.01831 | 14510 ft | 386 kts | 184° |
| 2026-02-17 07:16 | 41.49971 | 12.01818 | 15286 ft | 390 kts | 184° |
| 2026-02-17 07:17 | 41.47240 | 12.01803 | 16054 ft | 395 kts | 185° |
| 2026-02-17 07:17 | 41.44470 | 12.01786 | 16819 ft | 400 kts | 185° |
| 2026-02-17 07:17 | 41.41677 | 12.01769 | 17566 ft | 404 kts | 185° |
| 2026-02-17 07:17 | 41.38836 | 12.01752 | 18250 ft | 410 kts | 186° |
| 2026-02-17 07:18 | 41.35962 | 12.01735 | 18782 ft | 417 kts | 186° |
| 2026-02-17 07:18 | 41.33036 | 12.01719 | 19319 ft | 425 kts | 186° |
| 2026-02-17 07:18 | 41.30048 | 12.02237 | 19846 ft | 443 kts | 168° |
| 2026-02-17 07:19 | 41.24623 | 12.06482 | 20840 ft | 467 kts | 134° |
| 2026-02-17 07:19 | 41.22391 | 12.09676 | 21332 ft | 474 kts | 129° |
| 2026-02-17 07:19 | 41.20192 | 12.12968 | 21851 ft | 481 kts | 130° |
| 2026-02-17 07:19 | 41.17867 | 12.16212 | 22338 ft | 489 kts | 137° |
| 2026-02-17 07:20 | 41.15139 | 12.18853 | 22824 ft | 494 kts | 153° |
| 2026-02-17 07:20 | 41.11994 | 12.20669 | 23275 ft | 494 kts | 167° |
| 2026-02-17 07:20 | 41.08696 | 12.22054 | 23705 ft | 499 kts | 168° |
| 2026-02-17 07:20 | 41.05364 | 12.23430 | 24165 ft | 504 kts | 168° |
| 2026-02-17 07:21 | 41.02005 | 12.24824 | 24599 ft | 509 kts | 168° |
| 2026-02-17 07:21 | 40.98617 | 12.26241 | 25021 ft | 514 kts | 168° |
| 2026-02-17 07:21 | 40.95183 | 12.27683 | 25452 ft | 519 kts | 168° |
| 2026-02-17 07:21 | 40.91734 | 12.29135 | 25874 ft | 523 kts | 168° |
| 2026-02-17 07:22 | 40.88250 | 12.30660 | 26284 ft | 531 kts | 163° |
| 2026-02-17 07:22 | 40.84839 | 12.32634 | 26683 ft | 538 kts | 160° |
| 2026-02-17 07:22 | 40.81423 | 12.34689 | 27086 ft | 542 kts | 160° |
| 2026-02-17 07:23 | 40.74536 | 12.38821 | 27850 ft | 550 kts | 160° |
| 2026-02-17 07:23 | 40.67513 | 12.43013 | 28569 ft | 558 kts | 160° |
| 2026-02-17 07:23 | 40.63958 | 12.45129 | 28899 ft | 562 kts | 160° |
| 2026-02-17 07:24 | 40.60367 | 12.47264 | 29238 ft | 566 kts | 160° |
| 2026-02-17 07:24 | 40.56766 | 12.49402 | 29571 ft | 570 kts | 161° |
| 2026-02-17 07:24 | 40.54363 | 12.50827 | 29771 ft | 573 kts | 161° |
| 2026-02-17 07:24 | 40.50719 | 12.52987 | 30071 ft | 576 kts | 161° |
| 2026-02-17 07:25 | 40.47050 | 12.55160 | 30391 ft | 579 kts | 161° |
| 2026-02-17 07:25 | 40.43360 | 12.57342 | 30725 ft | 581 kts | 161° |
| 2026-02-17 07:25 | 40.39679 | 12.59517 | 31119 ft | 581 kts | 161° |
| 2026-02-17 07:25 | 40.35988 | 12.61696 | 31539 ft | 580 kts | 161° |
| 2026-02-17 07:26 | 40.32308 | 12.63866 | 31976 ft | 580 kts | 162° |
| 2026-02-17 07:26 | 40.28620 | 12.66037 | 32401 ft | 579 kts | 162° |
| 2026-02-17 07:26 | 40.24939 | 12.68201 | 32809 ft | 579 kts | 162° |
| 2026-02-17 07:27 | 40.17601 | 12.72506 | 33579 ft | 578 kts | 162° |
| 2026-02-17 07:27 | 40.13936 | 12.74652 | 33930 ft | 577 kts | 162° |
| 2026-02-17 07:27 | 40.10285 | 12.76788 | 34325 ft | 574 kts | 162° |
| 2026-02-17 07:27 | 40.06641 | 12.78918 | 34732 ft | 571 kts | 162° |
| 2026-02-17 07:28 | 40.03068 | 12.81002 | 35121 ft | 568 kts | 162° |
| 2026-02-17 07:28 | 39.99460 | 12.83104 | 35484 ft | 566 kts | 162° |
| 2026-02-17 07:28 | 39.95868 | 12.85193 | 35835 ft | 564 kts | 162° |
| 2026-02-17 07:28 | 39.92295 | 12.87269 | 36179 ft | 561 kts | 162° |
| 2026-02-17 07:29 | 39.88689 | 12.89361 | 36528 ft | 559 kts | 162° |
| 2026-02-17 07:29 | 39.85181 | 12.91395 | 36868 ft | 557 kts | 162° |
| 2026-02-17 07:29 | 39.81605 | 12.93466 | 37203 ft | 555 kts | 162° |
| 2026-02-17 07:29 | 39.78118 | 12.95484 | 37496 ft | 553 kts | 162° |
| 2026-02-17 07:30 | 39.74611 | 12.97510 | 37795 ft | 551 kts | 162° |
| 2026-02-17 07:30 | 39.71113 | 12.99529 | 38079 ft | 549 kts | 162° |
| 2026-02-17 07:30 | 39.67633 | 13.01536 | 38353 ft | 548 kts | 162° |
| 2026-02-17 07:31 | 39.60654 | 13.05492 | 38700 ft | 543 kts | 165° |
| 2026-02-17 07:31 | 39.57099 | 13.07051 | 38711 ft | 537 kts | 172° |
| 2026-02-17 07:31 | 39.49894 | 13.09621 | 38714 ft | 536 kts | 172° |
| 2026-02-17 07:32 | 39.42699 | 13.12203 | 38715 ft | 537 kts | 172° |
| 2026-02-17 07:32 | 39.35492 | 13.14797 | 38722 ft | 538 kts | 172° |
| 2026-02-17 07:33 | 39.28265 | 13.17394 | 38720 ft | 539 kts | 172° |
| 2026-02-17 07:33 | 39.21030 | 13.19987 | 38723 ft | 540 kts | 172° |
| 2026-02-17 07:34 | 39.13773 | 13.22583 | 38731 ft | 541 kts | 172° |
| 2026-02-17 07:35 | 39.02904 | 13.26460 | 38747 ft | 543 kts | 172° |
| 2026-02-17 07:35 | 38.95626 | 13.29051 | 38734 ft | 542 kts | 172° |
| 2026-02-17 07:36 | 38.88335 | 13.31640 | 38733 ft | 542 kts | 172° |
| 2026-02-17 07:36 | 38.81074 | 13.34211 | 38742 ft | 544 kts | 172° |
| 2026-02-17 07:37 | 38.73710 | 13.36815 | 38748 ft | 546 kts | 172° |
| 2026-02-17 07:37 | 38.66368 | 13.39407 | 38748 ft | 547 kts | 172° |
| 2026-02-17 07:38 | 38.59011 | 13.41997 | 38761 ft | 549 kts | 172° |
| 2026-02-17 07:38 | 38.53662 | 13.43877 | 38766 ft | 550 kts | 172° |
| 2026-02-17 07:39 | 38.42612 | 13.47753 | 38763 ft | 548 kts | 173° |
| 2026-02-17 07:39 | 38.35234 | 13.50331 | 38764 ft | 549 kts | 173° |
| 2026-02-17 07:40 | 38.27861 | 13.52905 | 38769 ft | 549 kts | 173° |
| 2026-02-17 07:40 | 38.20493 | 13.55471 | 38426 ft | 550 kts | 173° |
| 2026-02-17 07:41 | 38.16793 | 13.56758 | 37719 ft | 552 kts | 174° |
| 2026-02-17 07:41 | 38.13124 | 13.58034 | 36932 ft | 554 kts | 174° |
| 2026-02-17 07:41 | 38.09339 | 13.59351 | 36086 ft | 557 kts | 175° |
| 2026-02-17 07:41 | 38.05587 | 13.60654 | 35259 ft | 560 kts | 175° |
| 2026-02-17 07:42 | 38.01823 | 13.61961 | 34402 ft | 563 kts | 176° |
| 2026-02-17 07:42 | 37.98033 | 13.63274 | 33533 ft | 566 kts | 176° |
| 2026-02-17 07:42 | 37.94288 | 13.64592 | 32518 ft | 573 kts | 173° |
| 2026-02-17 07:43 | 37.87047 | 13.69294 | 30943 ft | 598 kts | 148° |
| 2026-02-17 07:43 | 37.83893 | 13.72778 | 30066 ft | 605 kts | 135° |
| 2026-02-17 07:43 | 37.81234 | 13.76880 | 29324 ft | 602 kts | 123° |
| 2026-02-17 07:43 | 37.79132 | 13.81438 | 28337 ft | 598 kts | 111° |
| 2026-02-17 07:44 | 37.77679 | 13.86302 | 27533 ft | 585 kts | 98° |
| 2026-02-17 07:44 | 37.76899 | 13.91255 | 27048 ft | 565 kts | 89° |
| 2026-02-17 07:44 | 37.76058 | 13.96135 | 26236 ft | 575 kts | 100° |
| 2026-02-17 07:44 | 37.74784 | 14.00919 | 25552 ft | 572 kts | 102° |
| 2026-02-17 07:45 | 37.73489 | 14.05649 | 24928 ft | 567 kts | 102° |
| 2026-02-17 07:45 | 37.72195 | 14.10333 | 24316 ft | 561 kts | 102° |
| 2026-02-17 07:45 | 37.70912 | 14.14964 | 23704 ft | 556 kts | 102° |
| 2026-02-17 07:45 | 37.69636 | 14.19556 | 23037 ft | 552 kts | 102° |
| 2026-02-17 07:46 | 37.68377 | 14.24083 | 22620 ft | 537 kts | 102° |
| 2026-02-17 07:46 | 37.67156 | 14.28455 | 22193 ft | 522 kts | 102° |
| 2026-02-17 07:46 | 37.65963 | 14.32748 | 21661 ft | 516 kts | 102° |
| 2026-02-17 07:47 | 37.63609 | 14.41172 | 20622 ft | 503 kts | 106° |
| 2026-02-17 07:47 | 37.62034 | 14.45050 | 20104 ft | 503 kts | 122° |
| 2026-02-17 07:47 | 37.59815 | 14.48406 | 19607 ft | 495 kts | 138° |
| 2026-02-17 07:47 | 37.57104 | 14.50999 | 19114 ft | 481 kts | 155° |
| 2026-02-17 07:48 | 37.54105 | 14.52659 | 18629 ft | 461 kts | 172° |
| 2026-02-17 07:48 | 37.51039 | 14.53314 | 18155 ft | 436 kts | 188° |
| 2026-02-17 07:48 | 37.48046 | 14.53290 | 17617 ft | 425 kts | 191° |
| 2026-02-17 07:48 | 37.45052 | 14.53411 | 17074 ft | 426 kts | 185° |
| 2026-02-17 07:49 | 37.42104 | 14.53906 | 16545 ft | 427 kts | 179° |
| 2026-02-17 07:49 | 37.39199 | 14.54693 | 16019 ft | 426 kts | 174° |
| 2026-02-17 07:49 | 37.36465 | 14.56109 | 15510 ft | 437 kts | 156° |
| 2026-02-17 07:49 | 37.34073 | 14.58491 | 15011 ft | 443 kts | 137° |
| 2026-02-17 07:50 | 37.32301 | 14.61601 | 14520 ft | 443 kts | 118° |
| 2026-02-17 07:50 | 37.31288 | 14.65250 | 14011 ft | 436 kts | 98° |
| 2026-02-17 07:50 | 37.31173 | 14.69005 | 13555 ft | 423 kts | 78° |
| 2026-02-17 07:51 | 37.32179 | 14.75429 | 12651 ft | 412 kts | 72° |
| 2026-02-17 07:51 | 37.32666 | 14.78927 | 12493 ft | 401 kts | 76° |
| 2026-02-17 07:51 | 37.33013 | 14.82350 | 12309 ft | 390 kts | 78° |
| 2026-02-17 07:51 | 37.33339 | 14.85702 | 11879 ft | 383 kts | 72° |
| 2026-02-17 07:52 | 37.33834 | 14.88989 | 11368 ft | 382 kts | 72° |
| 2026-02-17 07:52 | 37.34299 | 14.92206 | 10818 ft | 376 kts | 72° |
| 2026-02-17 07:52 | 37.34755 | 14.95424 | 10226 ft | 371 kts | 72° |
| 2026-02-17 07:52 | 37.35200 | 14.98596 | 9643 ft | 365 kts | 72° |
| 2026-02-17 07:53 | 37.35636 | 15.01698 | 9139 ft | 356 kts | 72° |
| 2026-02-17 07:53 | 37.36063 | 15.04736 | 8610 ft | 348 kts | 72° |
| 2026-02-17 07:53 | 37.36478 | 15.07691 | 8298 ft | 337 kts | 72° |
| 2026-02-17 07:53 | 37.36877 | 15.10545 | 8128 ft | 326 kts | 71° |
| 2026-02-17 07:54 | 37.37663 | 15.16103 | 7268 ft | 318 kts | 71° |
| 2026-02-17 07:54 | 37.38049 | 15.18839 | 6858 ft | 318 kts | 71° |
| 2026-02-17 07:55 | 37.38819 | 15.24298 | 6082 ft | 316 kts | 72° |
| 2026-02-17 07:55 | 37.39194 | 15.26994 | 5805 ft | 310 kts | 71° |
| 2026-02-17 07:55 | 37.39556 | 15.29607 | 5577 ft | 303 kts | 72° |
| 2026-02-17 07:55 | 37.39913 | 15.32187 | 5331 ft | 297 kts | 72° |
| 2026-02-17 07:56 | 37.40266 | 15.34734 | 5073 ft | 292 kts | 72° |
| 2026-02-17 07:56 | 37.40612 | 15.37231 | 4790 ft | 288 kts | 71° |
| 2026-02-17 07:56 | 37.40972 | 15.39716 | 4471 ft | 284 kts | 66° |
| 2026-02-17 07:56 | 37.41794 | 15.41817 | 4211 ft | 256 kts | 37° |
| 2026-02-17 07:57 | 37.43125 | 15.43076 | 3947 ft | 229 kts | 12° |
| 2026-02-17 07:57 | 37.44592 | 15.43571 | 3689 ft | 211 kts | 354° |
| 2026-02-17 07:57 | 37.45997 | 15.43462 | 3454 ft | 195 kts | 338° |
| 2026-02-17 07:57 | 37.47214 | 15.42885 | 3315 ft | 180 kts | 324° |
| 2026-02-17 07:58 | 37.48200 | 15.41995 | 3188 ft | 171 kts | 317° |
| 2026-02-17 07:58 | 37.49151 | 15.41048 | 3070 ft | 175 kts | 317° |
| 2026-02-17 07:58 | 37.49815 | 15.39829 | 2866 ft | 173 kts | 285° |
| 2026-02-17 07:59 | 37.49511 | 15.36895 | 2469 ft | 170 kts | 266° |
| 2026-02-17 07:59 | 37.49284 | 15.35441 | 2286 ft | 166 kts | 267° |
| 2026-02-17 07:59 | 37.49082 | 15.34054 | 2202 ft | 156 kts | 268° |
| 2026-02-17 07:59 | 37.48904 | 15.32726 | 2042 ft | 152 kts | 268° |
| 2026-02-17 08:00 | 37.48740 | 15.31403 | 2009 ft | 157 kts | 269° |
| 2026-02-17 08:00 | 37.48585 | 15.30058 | 1970 ft | 153 kts | 270° |
| 2026-02-17 08:00 | 37.48475 | 15.28720 | 1971 ft | 155 kts | 271° |
| 2026-02-17 08:00 | 37.48377 | 15.27355 | 1982 ft | 163 kts | 272° |
| 2026-02-17 08:01 | 37.48273 | 15.25891 | 1976 ft | 168 kts | 271° |
| 2026-02-17 08:01 | 37.48158 | 15.24417 | 1979 ft | 170 kts | 270° |
| 2026-02-17 08:01 | 37.48040 | 15.22932 | 1985 ft | 172 kts | 270° |
| 2026-02-17 08:01 | 37.47913 | 15.21436 | 1983 ft | 170 kts | 270° |
| 2026-02-17 08:02 | 37.47787 | 15.19959 | 1976 ft | 170 kts | 271° |
| 2026-02-17 08:02 | 37.47664 | 15.18509 | 1940 ft | 156 kts | 271° |
| 2026-02-17 08:02 | 37.47552 | 15.17270 | 1780 ft | 134 kts | 271° |
| 2026-02-17 08:03 | 37.47353 | 15.15149 | 1393 ft | 121 kts | 270° |
| 2026-02-17 08:03 | 37.47262 | 15.14079 | 1223 ft | 122 kts | 271° |
| 2026-02-17 08:03 | 37.47169 | 15.13031 | 1028 ft | 121 kts | 271° |
| 2026-02-17 08:03 | 37.47078 | 15.11915 | 835 ft | 133 kts | 271° |
| 2026-02-17 08:04 | 37.47024 | 15.11157 | 707 ft | 136 kts | 271° |
| 2026-02-17 08:04 | 37.46937 | 15.09937 | 445 ft | 139 kts | 271° |
| 2026-02-17 08:04 | 37.46846 | 15.08725 | 202 ft | 139 kts | 269° |
| 2026-02-17 08:04 | 37.46746 | 15.07521 | 45 ft | 130 kts | 269° |
| 2026-02-17 08:05 | 37.46678 | 15.06625 | 35 ft | 64 kts | 264° |
| 2026-02-17 08:05 | 37.46654 | 15.06365 | 36 ft | 14 kts | 271° |
| 2026-02-17 08:05 | 37.46705 | 15.06291 | 34 ft | 13 kts | 350° |
| 2026-02-17 08:05 | 37.46784 | 15.06316 | 32 ft | 6 kts | 18° |
| 2026-02-17 08:06 | 37.46822 | 15.06362 | 31 ft | 10 kts | 69° |
| 2026-02-17 08:06 | 37.46825 | 15.06414 | 31 ft | 2 kts | 87° |
| 2026-02-17 08:06 | 37.46827 | 15.06446 | 31 ft | 4 kts | 83° |
| 2026-02-17 08:07 | 37.46868 | 15.06494 | 31 ft | 8 kts | 4° |
| 2026-02-17 08:07 | 37.46922 | 15.06516 | 31 ft | 6 kts | 20° |
| 2026-02-17 08:07 | 37.46944 | 15.06526 | 31 ft | 0 kts | 18° |